sensor_id;sensor_type;location;lat;lon;timestamp;temperature;humidity
26326;DHT22;14032;52.510;7.342;2023-05-17T00:01:33;9.50;99.90
26326;DHT22;14032;52.510;7.342;2023-05-17T00:03:59;9.50;99.90
26326;DHT22;14032;52.510;7.342;2023-05-17T00:06:25;9.40;99.90
26326;DHT22;14032;52.510;7.342;2023-05-17T00:08:50;9.40;99.90
26326;DHT22;14032;52.510;7.342;2023-05-17T00:11:16;9.40;99.90
26326;DHT22;14032;52.510;7.342;2023-05-17T00:13:41;9.40;99.90
26326;DHT22;14032;52.510;7.342;2023-05-17T00:16:07;9.40;99.90
26326;DHT22;14032;52.510;7.342;2023-05-17T00:18:33;9.30;99.90
26326;DHT22;14032;52.510;7.342;2023-05-17T00:20:58;9.30;99.90
26326;DHT22;14032;52.510;7.342;2023-05-17T00:23:24;9.30;99.90
26326;DHT22;14032;52.510;7.342;2023-05-17T00:25:49;9.40;99.90
26326;DHT22;14032;52.510;7.342;2023-05-17T00:28:15;9.30;99.90
26326;DHT22;14032;52.510;7.342;2023-05-17T00:30:41;9.30;99.90
26326;DHT22;14032;52.510;7.342;2023-05-17T00:33:06;9.30;99.90
26326;DHT22;14032;52.510;7.342;2023-05-17T00:35:32;9.20;99.90
26326;DHT22;14032;52.510;7.342;2023-05-17T00:37:58;9.20;99.90
26326;DHT22;14032;52.510;7.342;2023-05-17T00:40:23;9.20;99.90
26326;DHT22;14032;52.510;7.342;2023-05-17T00:42:49;9.20;99.90
26326;DHT22;14032;52.510;7.342;2023-05-17T00:45:14;9.10;99.90
26326;DHT22;14032;52.510;7.342;2023-05-17T00:47:40;9.10;99.90
26326;DHT22;14032;52.510;7.342;2023-05-17T00:50:07;9.10;99.90
26326;DHT22;14032;52.510;7.342;2023-05-17T00:52:34;9.10;99.90
26326;DHT22;14032;52.510;7.342;2023-05-17T00:55:00;9.10;99.90
26326;DHT22;14032;52.510;7.342;2023-05-17T00:57:25;9.10;99.90
26326;DHT22;14032;52.510;7.342;2023-05-17T00:59:54;9.00;99.90
26326;DHT22;14032;52.510;7.342;2023-05-17T01:02:20;9.00;99.90
26326;DHT22;14032;52.510;7.342;2023-05-17T01:04:47;9.00;99.90
26326;DHT22;14032;52.510;7.342;2023-05-17T01:07:13;9.00;99.90
26326;DHT22;14032;52.510;7.342;2023-05-17T01:09:38;9.00;99.90
26326;DHT22;14032;52.510;7.342;2023-05-17T01:20:30;8.90;99.90
26326;DHT22;14032;52.510;7.342;2023-05-17T01:26:12;8.90;99.90
26326;DHT22;14032;52.510;7.342;2023-05-17T01:28:39;8.80;99.90
26326;DHT22;14032;52.510;7.342;2023-05-17T01:31:07;8.70;99.90
26326;DHT22;14032;52.510;7.342;2023-05-17T01:33:34;8.80;99.90
26326;DHT22;14032;52.510;7.342;2023-05-17T01:36:00;8.80;99.90
26326;DHT22;14032;52.510;7.342;2023-05-17T01:38:26;8.80;99.90
26326;DHT22;14032;52.510;7.342;2023-05-17T01:41:18;8.70;99.90
26326;DHT22;14032;52.510;7.342;2023-05-17T01:47:01;8.70;99.90
26326;DHT22;14032;52.510;7.342;2023-05-17T01:49:31;8.70;99.90
26326;DHT22;14032;52.510;7.342;2023-05-17T01:52:11;8.70;99.90
26326;DHT22;14032;52.510;7.342;2023-05-17T01:57:10;8.70;99.90
26326;DHT22;14032;52.510;7.342;2023-05-17T01:59:38;8.70;99.90
26326;DHT22;14032;52.510;7.342;2023-05-17T02:02:04;8.60;99.90
26326;DHT22;14032;52.510;7.342;2023-05-17T02:04:35;8.60;99.90
26326;DHT22;14032;52.510;7.342;2023-05-17T02:07:02;8.60;99.90
26326;DHT22;14032;52.510;7.342;2023-05-17T02:09:28;8.60;99.90
26326;DHT22;14032;52.510;7.342;2023-05-17T02:11:53;8.50;99.90
26326;DHT22;14032;52.510;7.342;2023-05-17T02:14:19;8.50;99.90
26326;DHT22;14032;52.510;7.342;2023-05-17T02:16:45;8.50;99.90
26326;DHT22;14032;52.510;7.342;2023-05-17T02:19:10;8.40;99.90
26326;DHT22;14032;52.510;7.342;2023-05-17T02:21:37;8.40;99.90
26326;DHT22;14032;52.510;7.342;2023-05-17T02:24:03;8.40;99.90
26326;DHT22;14032;52.510;7.342;2023-05-17T02:26:29;8.30;99.90
26326;DHT22;14032;52.510;7.342;2023-05-17T02:28:56;8.40;99.90
26326;DHT22;14032;52.510;7.342;2023-05-17T02:31:22;8.30;99.90
26326;DHT22;14032;52.510;7.342;2023-05-17T02:33:54;8.30;99.90
26326;DHT22;14032;52.510;7.342;2023-05-17T02:36:20;8.30;99.90
26326;DHT22;14032;52.510;7.342;2023-05-17T02:38:46;8.30;99.90
26326;DHT22;14032;52.510;7.342;2023-05-17T02:41:11;8.20;99.90
26326;DHT22;14032;52.510;7.342;2023-05-17T02:43:37;8.20;99.90
26326;DHT22;14032;52.510;7.342;2023-05-17T02:46:02;8.20;99.90
26326;DHT22;14032;52.510;7.342;2023-05-17T02:48:28;8.20;99.90
26326;DHT22;14032;52.510;7.342;2023-05-17T02:50:54;8.20;99.90
26326;DHT22;14032;52.510;7.342;2023-05-17T02:53:19;8.20;99.90
26326;DHT22;14032;52.510;7.342;2023-05-17T02:55:45;8.10;99.90
26326;DHT22;14032;52.510;7.342;2023-05-17T02:58:10;8.10;99.90
26326;DHT22;14032;52.510;7.342;2023-05-17T03:00:36;8.10;99.90
26326;DHT22;14032;52.510;7.342;2023-05-17T03:03:02;8.10;99.90
26326;DHT22;14032;52.510;7.342;2023-05-17T03:05:27;8.00;99.90
26326;DHT22;14032;52.510;7.342;2023-05-17T03:07:53;8.00;99.90
26326;DHT22;14032;52.510;7.342;2023-05-17T03:10:18;8.00;99.90
26326;DHT22;14032;52.510;7.342;2023-05-17T03:12:44;8.00;99.90
26326;DHT22;14032;52.510;7.342;2023-05-17T03:15:10;8.00;99.90
26326;DHT22;14032;52.510;7.342;2023-05-17T03:17:36;8.00;99.90
26326;DHT22;14032;52.510;7.342;2023-05-17T03:20:01;8.00;99.90
26326;DHT22;14032;52.510;7.342;2023-05-17T03:22:27;7.90;99.90
26326;DHT22;14032;52.510;7.342;2023-05-17T03:24:53;8.00;99.90
26326;DHT22;14032;52.510;7.342;2023-05-17T03:27:18;7.90;99.90
26326;DHT22;14032;52.510;7.342;2023-05-17T03:29:44;7.90;99.90
26326;DHT22;14032;52.510;7.342;2023-05-17T03:32:09;7.90;99.90
26326;DHT22;14032;52.510;7.342;2023-05-17T03:34:35;8.00;99.90
26326;DHT22;14032;52.510;7.342;2023-05-17T03:37:00;7.90;99.90
26326;DHT22;14032;52.510;7.342;2023-05-17T03:39:26;7.90;99.90
26326;DHT22;14032;52.510;7.342;2023-05-17T03:41:52;7.80;99.90
26326;DHT22;14032;52.510;7.342;2023-05-17T03:44:17;7.80;99.90
26326;DHT22;14032;52.510;7.342;2023-05-17T03:46:43;7.80;99.90
26326;DHT22;14032;52.510;7.342;2023-05-17T03:49:08;7.90;99.90
26326;DHT22;14032;52.510;7.342;2023-05-17T03:51:34;7.90;99.90
26326;DHT22;14032;52.510;7.342;2023-05-17T03:54:00;7.90;99.90
26326;DHT22;14032;52.510;7.342;2023-05-17T03:56:26;7.90;99.90
26326;DHT22;14032;52.510;7.342;2023-05-17T03:58:52;7.80;99.90
26326;DHT22;14032;52.510;7.342;2023-05-17T04:01:18;7.90;99.90
26326;DHT22;14032;52.510;7.342;2023-05-17T04:03:45;7.90;99.90
26326;DHT22;14032;52.510;7.342;2023-05-17T04:06:12;7.90;99.90
26326;DHT22;14032;52.510;7.342;2023-05-17T04:08:38;7.90;99.90
26326;DHT22;14032;52.510;7.342;2023-05-17T04:11:03;7.80;99.90
26326;DHT22;14032;52.510;7.342;2023-05-17T04:13:41;7.80;99.90
26326;DHT22;14032;52.510;7.342;2023-05-17T04:16:07;7.80;99.90
26326;DHT22;14032;52.510;7.342;2023-05-17T04:18:34;7.70;99.90
26326;DHT22;14032;52.510;7.342;2023-05-17T04:21:01;7.80;99.90
26326;DHT22;14032;52.510;7.342;2023-05-17T04:23:26;7.80;99.90
26326;DHT22;14032;52.510;7.342;2023-05-17T04:25:52;7.80;99.90
26326;DHT22;14032;52.510;7.342;2023-05-17T04:28:18;7.80;99.90
26326;DHT22;14032;52.510;7.342;2023-05-17T04:30:45;7.80;99.90
26326;DHT22;14032;52.510;7.342;2023-05-17T04:33:11;7.80;99.90
26326;DHT22;14032;52.510;7.342;2023-05-17T04:35:39;7.80;99.90
26326;DHT22;14032;52.510;7.342;2023-05-17T04:38:06;7.80;99.90
26326;DHT22;14032;52.510;7.342;2023-05-17T04:40:32;7.80;99.90
26326;DHT22;14032;52.510;7.342;2023-05-17T04:42:57;7.80;99.90
26326;DHT22;14032;52.510;7.342;2023-05-17T04:45:23;8.00;99.90
26326;DHT22;14032;52.510;7.342;2023-05-17T04:47:49;7.90;99.90
26326;DHT22;14032;52.510;7.342;2023-05-17T04:50:16;8.00;99.90
26326;DHT22;14032;52.510;7.342;2023-05-17T04:52:42;8.00;99.90
26326;DHT22;14032;52.510;7.342;2023-05-17T04:55:08;8.00;99.90
26326;DHT22;14032;52.510;7.342;2023-05-17T04:57:33;8.00;99.90
26326;DHT22;14032;52.510;7.342;2023-05-17T05:00:00;8.10;99.90
26326;DHT22;14032;52.510;7.342;2023-05-17T05:02:26;8.20;99.90
26326;DHT22;14032;52.510;7.342;2023-05-17T05:04:51;8.20;99.90
26326;DHT22;14032;52.510;7.342;2023-05-17T05:07:17;8.30;99.90
26326;DHT22;14032;52.510;7.342;2023-05-17T05:09:42;8.30;99.90
26326;DHT22;14032;52.510;7.342;2023-05-17T05:12:08;8.40;99.90
26326;DHT22;14032;52.510;7.342;2023-05-17T05:14:34;8.40;99.90
26326;DHT22;14032;52.510;7.342;2023-05-17T05:17:00;8.50;99.90
26326;DHT22;14032;52.510;7.342;2023-05-17T05:19:25;8.60;99.90
26326;DHT22;14032;52.510;7.342;2023-05-17T05:21:51;8.70;99.90
26326;DHT22;14032;52.510;7.342;2023-05-17T05:24:16;8.80;99.90
26326;DHT22;14032;52.510;7.342;2023-05-17T05:26:42;9.00;99.90
26326;DHT22;14032;52.510;7.342;2023-05-17T05:29:09;9.00;99.90
26326;DHT22;14032;52.510;7.342;2023-05-17T05:31:34;9.10;99.90
26326;DHT22;14032;52.510;7.342;2023-05-17T05:34:00;9.10;99.90
26326;DHT22;14032;52.510;7.342;2023-05-17T05:36:25;9.20;99.90
26326;DHT22;14032;52.510;7.342;2023-05-17T05:38:51;9.30;99.90
26326;DHT22;14032;52.510;7.342;2023-05-17T05:41:18;9.40;99.90
26326;DHT22;14032;52.510;7.342;2023-05-17T05:43:44;9.40;99.90
26326;DHT22;14032;52.510;7.342;2023-05-17T05:46:10;9.50;99.90
26326;DHT22;14032;52.510;7.342;2023-05-17T05:48:35;9.50;99.90
26326;DHT22;14032;52.510;7.342;2023-05-17T05:51:03;9.50;99.90
26326;DHT22;14032;52.510;7.342;2023-05-17T05:53:29;9.50;99.90
26326;DHT22;14032;52.510;7.342;2023-05-17T05:55:55;9.50;99.90
26326;DHT22;14032;52.510;7.342;2023-05-17T05:58:21;9.50;99.90
26326;DHT22;14032;52.510;7.342;2023-05-17T06:00:46;9.60;99.90
26326;DHT22;14032;52.510;7.342;2023-05-17T06:03:15;9.50;99.90
26326;DHT22;14032;52.510;7.342;2023-05-17T06:05:41;9.60;99.90
26326;DHT22;14032;52.510;7.342;2023-05-17T06:08:09;9.60;99.90
26326;DHT22;14032;52.510;7.342;2023-05-17T06:10:35;9.60;99.90
26326;DHT22;14032;52.510;7.342;2023-05-17T06:13:00;9.50;99.90
26326;DHT22;14032;52.510;7.342;2023-05-17T06:15:26;9.50;99.90
26326;DHT22;14032;52.510;7.342;2023-05-17T06:17:52;9.40;99.90
26326;DHT22;14032;52.510;7.342;2023-05-17T06:20:18;9.50;99.90
26326;DHT22;14032;52.510;7.342;2023-05-17T06:22:44;9.50;99.90
26326;DHT22;14032;52.510;7.342;2023-05-17T06:25:09;9.60;99.90
26326;DHT22;14032;52.510;7.342;2023-05-17T06:27:38;9.70;99.90
26326;DHT22;14032;52.510;7.342;2023-05-17T06:30:04;9.90;99.90
26326;DHT22;14032;52.510;7.342;2023-05-17T06:32:30;10.10;99.90
26326;DHT22;14032;52.510;7.342;2023-05-17T06:34:56;10.40;99.90
26326;DHT22;14032;52.510;7.342;2023-05-17T06:37:22;10.60;99.90
26326;DHT22;14032;52.510;7.342;2023-05-17T06:39:50;10.80;99.90
26326;DHT22;14032;52.510;7.342;2023-05-17T06:42:16;10.90;99.90
26326;DHT22;14032;52.510;7.342;2023-05-17T06:44:42;10.90;99.90
26326;DHT22;14032;52.510;7.342;2023-05-17T06:47:07;11.00;99.90
26326;DHT22;14032;52.510;7.342;2023-05-17T06:49:33;11.20;99.90
26326;DHT22;14032;52.510;7.342;2023-05-17T06:51:59;11.30;99.90
26326;DHT22;14032;52.510;7.342;2023-05-17T06:54:28;11.50;99.90
26326;DHT22;14032;52.510;7.342;2023-05-17T06:56:58;11.60;99.90
26326;DHT22;14032;52.510;7.342;2023-05-17T06:59:23;11.70;99.90
26326;DHT22;14032;52.510;7.342;2023-05-17T07:01:49;11.80;99.90
26326;DHT22;14032;52.510;7.342;2023-05-17T07:04:15;11.60;99.90
26326;DHT22;14032;52.510;7.342;2023-05-17T07:06:40;11.50;99.90
26326;DHT22;14032;52.510;7.342;2023-05-17T07:09:06;11.40;99.90
26326;DHT22;14032;52.510;7.342;2023-05-17T07:11:32;11.30;99.90
26326;DHT22;14032;52.510;7.342;2023-05-17T07:13:58;11.20;99.90
26326;DHT22;14032;52.510;7.342;2023-05-17T07:16:23;11.00;99.90
26326;DHT22;14032;52.510;7.342;2023-05-17T07:18:49;11.00;99.90
26326;DHT22;14032;52.510;7.342;2023-05-17T07:21:14;10.90;99.90
26326;DHT22;14032;52.510;7.342;2023-05-17T07:23:40;10.80;99.90
26326;DHT22;14032;52.510;7.342;2023-05-17T07:26:06;10.80;99.90
26326;DHT22;14032;52.510;7.342;2023-05-17T07:28:31;10.70;99.90
26326;DHT22;14032;52.510;7.342;2023-05-17T07:30:57;10.50;99.90
26326;DHT22;14032;52.510;7.342;2023-05-17T07:33:22;10.40;99.90
26326;DHT22;14032;52.510;7.342;2023-05-17T07:35:48;10.30;99.90
26326;DHT22;14032;52.510;7.342;2023-05-17T07:38:13;10.40;99.90
26326;DHT22;14032;52.510;7.342;2023-05-17T07:40:43;10.70;99.90
26326;DHT22;14032;52.510;7.342;2023-05-17T07:43:09;11.00;99.90
26326;DHT22;14032;52.510;7.342;2023-05-17T07:45:34;11.10;99.90
26326;DHT22;14032;52.510;7.342;2023-05-17T07:48:00;10.90;99.90
26326;DHT22;14032;52.510;7.342;2023-05-17T07:50:26;10.80;99.90
26326;DHT22;14032;52.510;7.342;2023-05-17T07:52:52;10.60;99.90
26326;DHT22;14032;52.510;7.342;2023-05-17T07:55:18;10.60;99.90
26326;DHT22;14032;52.510;7.342;2023-05-17T07:57:44;10.50;99.90
26326;DHT22;14032;52.510;7.342;2023-05-17T08:00:12;10.50;99.90
26326;DHT22;14032;52.510;7.342;2023-05-17T08:02:38;10.40;99.90
26326;DHT22;14032;52.510;7.342;2023-05-17T08:05:04;10.50;99.90
26326;DHT22;14032;52.510;7.342;2023-05-17T08:07:30;10.50;99.90
26326;DHT22;14032;52.510;7.342;2023-05-17T08:09:55;10.60;99.90
26326;DHT22;14032;52.510;7.342;2023-05-17T08:12:21;10.70;99.90
26326;DHT22;14032;52.510;7.342;2023-05-17T08:14:47;11.00;99.90
26326;DHT22;14032;52.510;7.342;2023-05-17T08:17:12;11.40;99.90
26326;DHT22;14032;52.510;7.342;2023-05-17T08:19:38;11.60;99.90
26326;DHT22;14032;52.510;7.342;2023-05-17T08:22:04;11.70;99.20
26326;DHT22;14032;52.510;7.342;2023-05-17T08:24:30;11.80;97.90
26326;DHT22;14032;52.510;7.342;2023-05-17T08:26:55;12.00;98.10
26326;DHT22;14032;52.510;7.342;2023-05-17T08:29:21;12.30;98.90
26326;DHT22;14032;52.510;7.342;2023-05-17T08:31:47;12.50;96.70
26326;DHT22;14032;52.510;7.342;2023-05-17T08:34:12;12.80;96.80
26326;DHT22;14032;52.510;7.342;2023-05-17T08:36:38;13.00;96.20
26326;DHT22;14032;52.510;7.342;2023-05-17T08:39:04;13.30;95.40
26326;DHT22;14032;52.510;7.342;2023-05-17T08:41:29;13.50;95.60
26326;DHT22;14032;52.510;7.342;2023-05-17T08:43:55;13.40;94.50
26326;DHT22;14032;52.510;7.342;2023-05-17T08:46:24;13.40;93.00
26326;DHT22;14032;52.510;7.342;2023-05-17T08:48:52;13.60;93.20
26326;DHT22;14032;52.510;7.342;2023-05-17T08:51:19;13.50;93.20
26326;DHT22;14032;52.510;7.342;2023-05-17T08:53:45;13.70;93.90
26326;DHT22;14032;52.510;7.342;2023-05-17T08:56:11;13.80;92.30
26326;DHT22;14032;52.510;7.342;2023-05-17T08:58:41;14.00;93.00
26326;DHT22;14032;52.510;7.342;2023-05-17T09:01:07;14.10;92.30
26326;DHT22;14032;52.510;7.342;2023-05-17T09:03:35;14.10;91.40
26326;DHT22;14032;52.510;7.342;2023-05-17T09:06:06;14.10;92.40
26326;DHT22;14032;52.510;7.342;2023-05-17T09:08:32;14.00;91.90
26326;DHT22;14032;52.510;7.342;2023-05-17T09:10:58;13.60;91.40
26326;DHT22;14032;52.510;7.342;2023-05-17T09:13:24;13.30;91.80
26326;DHT22;14032;52.510;7.342;2023-05-17T09:15:50;13.20;92.50
26326;DHT22;14032;52.510;7.342;2023-05-17T09:18:16;13.20;93.20
26326;DHT22;14032;52.510;7.342;2023-05-17T09:20:42;13.00;93.50
26326;DHT22;14032;52.510;7.342;2023-05-17T09:23:13;12.70;93.40
26326;DHT22;14032;52.510;7.342;2023-05-17T09:26:02;12.60;92.60
26326;DHT22;14032;52.510;7.342;2023-05-17T09:28:39;12.40;93.70
26326;DHT22;14032;52.510;7.342;2023-05-17T09:31:09;12.30;94.40
26326;DHT22;14032;52.510;7.342;2023-05-17T09:33:45;12.10;94.40
26326;DHT22;14032;52.510;7.342;2023-05-17T09:36:18;12.00;95.90
26326;DHT22;14032;52.510;7.342;2023-05-17T09:38:58;11.90;95.60
26326;DHT22;14032;52.510;7.342;2023-05-17T09:41:32;11.80;96.40
26326;DHT22;14032;52.510;7.342;2023-05-17T09:44:02;11.80;96.60
26326;DHT22;14032;52.510;7.342;2023-05-17T09:46:31;11.80;96.00
26326;DHT22;14032;52.510;7.342;2023-05-17T09:49:00;11.70;96.90
26326;DHT22;14032;52.510;7.342;2023-05-17T09:51:45;11.70;96.90
26326;DHT22;14032;52.510;7.342;2023-05-17T09:54:11;11.70;97.70
26326;DHT22;14032;52.510;7.342;2023-05-17T09:56:37;11.70;98.50
26326;DHT22;14032;52.510;7.342;2023-05-17T09:59:09;11.70;98.20
26326;DHT22;14032;52.510;7.342;2023-05-17T10:01:37;11.80;98.80
26326;DHT22;14032;52.510;7.342;2023-05-17T10:04:04;11.80;98.20
26326;DHT22;14032;52.510;7.342;2023-05-17T10:06:33;11.80;99.00
26326;DHT22;14032;52.510;7.342;2023-05-17T10:09:01;12.20;98.70
26326;DHT22;14032;52.510;7.342;2023-05-17T10:11:30;12.50;97.20
26326;DHT22;14032;52.510;7.342;2023-05-17T10:14:09;12.60;96.00
26326;DHT22;14032;52.510;7.342;2023-05-17T10:16:37;12.70;95.40
26326;DHT22;14032;52.510;7.342;2023-05-17T10:19:04;13.00;95.70
26326;DHT22;14032;52.510;7.342;2023-05-17T10:21:31;13.50;95.20
26326;DHT22;14032;52.510;7.342;2023-05-17T10:24:01;13.50;93.60
26326;DHT22;14032;52.510;7.342;2023-05-17T10:26:28;13.60;93.50
26326;DHT22;14032;52.510;7.342;2023-05-17T10:28:58;13.50;92.60
26326;DHT22;14032;52.510;7.342;2023-05-17T10:31:31;13.30;93.90
26326;DHT22;14032;52.510;7.342;2023-05-17T10:34:04;13.30;92.80
26326;DHT22;14032;52.510;7.342;2023-05-17T10:36:31;13.20;94.40
26326;DHT22;14032;52.510;7.342;2023-05-17T10:38:58;13.10;93.80
26326;DHT22;14032;52.510;7.342;2023-05-17T10:41:28;13.00;92.30
26326;DHT22;14032;52.510;7.342;2023-05-17T10:43:55;12.90;92.80
26326;DHT22;14032;52.510;7.342;2023-05-17T10:46:22;12.70;93.30
26326;DHT22;14032;52.510;7.342;2023-05-17T10:48:52;12.70;93.60
26326;DHT22;14032;52.510;7.342;2023-05-17T10:51:24;12.70;93.90
26326;DHT22;14032;52.510;7.342;2023-05-17T10:54:09;12.60;93.20
26326;DHT22;14032;52.510;7.342;2023-05-17T10:56:40;12.60;93.70
26326;DHT22;14032;52.510;7.342;2023-05-17T10:59:21;12.60;94.00
26326;DHT22;14032;52.510;7.342;2023-05-17T11:01:49;12.60;92.90
26326;DHT22;14032;52.510;7.342;2023-05-17T11:04:21;12.60;93.90
26326;DHT22;14032;52.510;7.342;2023-05-17T11:06:51;12.60;92.60
26326;DHT22;14032;52.510;7.342;2023-05-17T11:09:20;12.50;92.80
26326;DHT22;14032;52.510;7.342;2023-05-17T11:17:13;13.30;91.70
26326;DHT22;14032;52.510;7.342;2023-05-17T11:22:27;13.60;90.70
26326;DHT22;14032;52.510;7.342;2023-05-17T11:24:59;13.70;90.50
26326;DHT22;14032;52.510;7.342;2023-05-17T11:27:27;13.80;90.70
26326;DHT22;14032;52.510;7.342;2023-05-17T11:30:07;13.80;90.80
26326;DHT22;14032;52.510;7.342;2023-05-17T11:32:33;13.80;91.00
26326;DHT22;14032;52.510;7.342;2023-05-17T11:34:59;13.70;91.40
26326;DHT22;14032;52.510;7.342;2023-05-17T11:37:26;13.50;91.30
26326;DHT22;14032;52.510;7.342;2023-05-17T11:40:06;13.30;91.80
26326;DHT22;14032;52.510;7.342;2023-05-17T11:42:33;13.20;91.90
26326;DHT22;14032;52.510;7.342;2023-05-17T11:45:00;13.10;91.10
26326;DHT22;14032;52.510;7.342;2023-05-17T11:47:27;13.20;90.60
26326;DHT22;14032;52.510;7.342;2023-05-17T11:49:54;13.40;91.10
26326;DHT22;14032;52.510;7.342;2023-05-17T11:52:21;13.30;90.80
26326;DHT22;14032;52.510;7.342;2023-05-17T11:54:48;13.40;92.00
26326;DHT22;14032;52.510;7.342;2023-05-17T11:57:14;13.30;91.40
26326;DHT22;14032;52.510;7.342;2023-05-17T11:59:42;13.20;92.50
26326;DHT22;14032;52.510;7.342;2023-05-17T12:02:08;13.10;92.90
26326;DHT22;14032;52.510;7.342;2023-05-17T12:04:38;13.00;92.20
26326;DHT22;14032;52.510;7.342;2023-05-17T12:07:04;12.90;92.80
26326;DHT22;14032;52.510;7.342;2023-05-17T12:09:29;12.80;91.60
26326;DHT22;14032;52.510;7.342;2023-05-17T12:11:55;12.90;91.90
26326;DHT22;14032;52.510;7.342;2023-05-17T12:14:23;13.20;91.50
26326;DHT22;14032;52.510;7.342;2023-05-17T12:16:53;13.10;90.70
26326;DHT22;14032;52.510;7.342;2023-05-17T12:19:21;13.20;90.80
26326;DHT22;14032;52.510;7.342;2023-05-17T12:21:49;13.20;90.60
26326;DHT22;14032;52.510;7.342;2023-05-17T12:24:15;13.30;91.10
26326;DHT22;14032;52.510;7.342;2023-05-17T12:26:42;13.40;90.70
26326;DHT22;14032;52.510;7.342;2023-05-17T12:29:12;13.50;90.00
26326;DHT22;14032;52.510;7.342;2023-05-17T12:31:47;13.50;90.20
26326;DHT22;14032;52.510;7.342;2023-05-17T12:34:15;13.60;89.30
26326;DHT22;14032;52.510;7.342;2023-05-17T12:36:42;13.50;90.20
26326;DHT22;14032;52.510;7.342;2023-05-17T12:39:10;13.50;90.60
26326;DHT22;14032;52.510;7.342;2023-05-17T12:41:37;13.70;90.70
26326;DHT22;14032;52.510;7.342;2023-05-17T12:44:03;13.80;90.30
26326;DHT22;14032;52.510;7.342;2023-05-17T12:46:29;13.70;90.80
26326;DHT22;14032;52.510;7.342;2023-05-17T12:49:00;13.70;91.00
26326;DHT22;14032;52.510;7.342;2023-05-17T12:51:29;13.50;90.40
26326;DHT22;14032;52.510;7.342;2023-05-17T12:54:03;13.40;90.20
26326;DHT22;14032;52.510;7.342;2023-05-17T12:56:29;13.50;91.80
26326;DHT22;14032;52.510;7.342;2023-05-17T12:59:15;13.50;90.80
26326;DHT22;14032;52.510;7.342;2023-05-17T13:01:55;13.40;91.10
26326;DHT22;14032;52.510;7.342;2023-05-17T13:04:29;13.20;91.10
26326;DHT22;14032;52.510;7.342;2023-05-17T13:07:00;13.20;91.10
26326;DHT22;14032;52.510;7.342;2023-05-17T13:09:27;13.10;91.20
26326;DHT22;14032;52.510;7.342;2023-05-17T13:12:00;13.10;90.80
26326;DHT22;14032;52.510;7.342;2023-05-17T13:14:36;13.10;90.60
26326;DHT22;14032;52.510;7.342;2023-05-17T13:17:03;13.10;91.10
26326;DHT22;14032;52.510;7.342;2023-05-17T13:19:29;13.10;90.60
26326;DHT22;14032;52.510;7.342;2023-05-17T13:21:55;13.20;90.30
26326;DHT22;14032;52.510;7.342;2023-05-17T13:24:20;13.10;90.40
26326;DHT22;14032;52.510;7.342;2023-05-17T13:26:46;13.30;90.80
26326;DHT22;14032;52.510;7.342;2023-05-17T13:29:11;13.40;91.00
26326;DHT22;14032;52.510;7.342;2023-05-17T13:31:37;13.50;90.50
26326;DHT22;14032;52.510;7.342;2023-05-17T13:34:02;13.50;89.60
26326;DHT22;14032;52.510;7.342;2023-05-17T13:36:29;13.60;91.00
26326;DHT22;14032;52.510;7.342;2023-05-17T13:38:55;13.60;91.90
26326;DHT22;14032;52.510;7.342;2023-05-17T13:41:21;13.70;91.80
26326;DHT22;14032;52.510;7.342;2023-05-17T13:43:47;13.70;92.10
26326;DHT22;14032;52.510;7.342;2023-05-17T13:46:12;13.70;91.40
26326;DHT22;14032;52.510;7.342;2023-05-17T13:48:38;13.70;91.80
26326;DHT22;14032;52.510;7.342;2023-05-17T13:51:03;13.70;91.60
26326;DHT22;14032;52.510;7.342;2023-05-17T13:53:29;13.60;91.40
26326;DHT22;14032;52.510;7.342;2023-05-17T13:55:54;13.60;91.50
26326;DHT22;14032;52.510;7.342;2023-05-17T13:58:20;13.50;92.00
26326;DHT22;14032;52.510;7.342;2023-05-17T14:00:46;13.50;91.90
26326;DHT22;14032;52.510;7.342;2023-05-17T14:03:11;13.50;92.00
26326;DHT22;14032;52.510;7.342;2023-05-17T14:05:38;13.60;91.80
26326;DHT22;14032;52.510;7.342;2023-05-17T14:08:04;13.60;91.80
26326;DHT22;14032;52.510;7.342;2023-05-17T14:10:30;13.60;91.50
26326;DHT22;14032;52.510;7.342;2023-05-17T14:12:56;13.60;91.10
26326;DHT22;14032;52.510;7.342;2023-05-17T14:15:22;13.60;91.40
26326;DHT22;14032;52.510;7.342;2023-05-17T14:17:49;13.70;91.40
26326;DHT22;14032;52.510;7.342;2023-05-17T14:20:14;13.70;90.90
26326;DHT22;14032;52.510;7.342;2023-05-17T14:22:40;13.70;91.60
26326;DHT22;14032;52.510;7.342;2023-05-17T14:25:07;13.70;91.30
26326;DHT22;14032;52.510;7.342;2023-05-17T14:27:33;13.70;91.00
26326;DHT22;14032;52.510;7.342;2023-05-17T14:29:59;13.70;91.70
26326;DHT22;14032;52.510;7.342;2023-05-17T14:32:26;13.60;91.20
26326;DHT22;14032;52.510;7.342;2023-05-17T14:34:51;13.60;91.40
26326;DHT22;14032;52.510;7.342;2023-05-17T14:37:17;13.50;90.60
26326;DHT22;14032;52.510;7.342;2023-05-17T14:39:43;13.40;91.00
26326;DHT22;14032;52.510;7.342;2023-05-17T14:42:08;13.30;91.30
26326;DHT22;14032;52.510;7.342;2023-05-17T14:44:34;13.30;92.00
26326;DHT22;14032;52.510;7.342;2023-05-17T14:47:04;13.20;91.00
26326;DHT22;14032;52.510;7.342;2023-05-17T14:49:29;13.10;89.90
26326;DHT22;14032;52.510;7.342;2023-05-17T14:51:55;13.10;90.60
26326;DHT22;14032;52.510;7.342;2023-05-17T14:54:20;13.10;90.20
26326;DHT22;14032;52.510;7.342;2023-05-17T14:56:46;13.10;88.70
26326;DHT22;14032;52.510;7.342;2023-05-17T14:59:12;13.10;90.00
26326;DHT22;14032;52.510;7.342;2023-05-17T15:01:37;13.10;90.80
26326;DHT22;14032;52.510;7.342;2023-05-17T15:04:03;13.10;91.10
26326;DHT22;14032;52.510;7.342;2023-05-17T15:06:29;13.10;91.50
26326;DHT22;14032;52.510;7.342;2023-05-17T15:08:56;13.10;92.10
26326;DHT22;14032;52.510;7.342;2023-05-17T15:11:23;13.10;92.00
26326;DHT22;14032;52.510;7.342;2023-05-17T15:13:49;13.00;91.50
26326;DHT22;14032;52.510;7.342;2023-05-17T15:16:14;12.90;92.10
26326;DHT22;14032;52.510;7.342;2023-05-17T15:18:40;13.00;91.80
26326;DHT22;14032;52.510;7.342;2023-05-17T15:21:06;13.00;91.80
26326;DHT22;14032;52.510;7.342;2023-05-17T15:23:31;13.10;92.50
26326;DHT22;14032;52.510;7.342;2023-05-17T15:25:57;13.30;91.80
26326;DHT22;14032;52.510;7.342;2023-05-17T15:28:22;13.20;92.00
26326;DHT22;14032;52.510;7.342;2023-05-17T15:30:48;13.20;92.20
26326;DHT22;14032;52.510;7.342;2023-05-17T15:33:23;13.30;92.60
26326;DHT22;14032;52.510;7.342;2023-05-17T15:35:49;13.20;92.30
26326;DHT22;14032;52.510;7.342;2023-05-17T15:38:16;13.20;92.30
26326;DHT22;14032;52.510;7.342;2023-05-17T15:40:41;13.20;91.80
26326;DHT22;14032;52.510;7.342;2023-05-17T15:43:07;13.10;92.40
26326;DHT22;14032;52.510;7.342;2023-05-17T15:45:33;13.10;92.90
26326;DHT22;14032;52.510;7.342;2023-05-17T15:47:58;13.10;92.90
26326;DHT22;14032;52.510;7.342;2023-05-17T15:50:26;13.10;92.60
26326;DHT22;14032;52.510;7.342;2023-05-17T15:52:52;13.10;92.20
26326;DHT22;14032;52.510;7.342;2023-05-17T15:55:18;13.10;92.20
26326;DHT22;14032;52.510;7.342;2023-05-17T15:57:44;13.00;92.40
26326;DHT22;14032;52.510;7.342;2023-05-17T16:00:11;13.10;92.20
26326;DHT22;14032;52.510;7.342;2023-05-17T16:02:36;13.10;92.20